createdAt,value
2023-05-14T00:00:26.789Z,9.40
2023-05-14T00:01:26.775Z,6.40
2023-05-14T00:02:26.873Z,9.40
2023-05-14T00:03:26.809Z,6.30
2023-05-14T00:04:26.793Z,8.00
2023-05-14T00:05:26.728Z,7.30
2023-05-14T00:06:26.711Z,8.30
2023-05-14T00:07:26.718Z,7.60
2023-05-14T00:08:26.727Z,6.50
2023-05-14T00:09:26.712Z,5.90
2023-05-14T00:10:26.676Z,6.20
2023-05-14T00:11:26.662Z,10.10
2023-05-14T00:12:26.663Z,7.50
2023-05-14T00:13:26.667Z,7.50
2023-05-14T00:14:26.648Z,7.70
2023-05-14T00:15:26.626Z,6.00
2023-05-14T00:16:26.754Z,10.50
2023-05-14T00:17:26.651Z,8.00
2023-05-14T00:18:26.693Z,6.60
2023-05-14T00:19:26.587Z,8.30
2023-05-14T00:20:26.574Z,6.30
2023-05-14T00:21:26.591Z,5.50
2023-05-14T00:22:26.554Z,7.40
2023-05-14T00:23:26.693Z,7.60
2023-05-14T00:24:26.532Z,6.80
2023-05-14T00:25:26.549Z,7.60
2023-05-14T00:26:26.540Z,7.20
2023-05-14T00:27:26.520Z,7.50
2023-05-14T00:28:26.509Z,6.90
2023-05-14T00:29:26.509Z,7.60
2023-05-14T00:30:26.480Z,7.60
2023-05-14T00:31:26.494Z,7.00
2023-05-14T00:32:26.521Z,7.80
2023-05-14T00:33:26.448Z,7.30
2023-05-14T00:34:26.422Z,9.60
2023-05-14T00:35:26.418Z,7.60
2023-05-14T00:36:26.474Z,7.20
2023-05-14T00:37:26.430Z,10.50
2023-05-14T00:38:26.383Z,8.00
2023-05-14T00:39:26.371Z,8.20
2023-05-14T00:40:26.462Z,7.10
2023-05-14T00:41:26.390Z,6.60
2023-05-14T00:42:26.345Z,6.60
2023-05-14T00:43:26.340Z,6.80
2023-05-14T00:44:26.342Z,11.80
2023-05-14T00:45:26.315Z,7.10
2023-05-14T00:46:26.353Z,7.70
2023-05-14T00:47:26.339Z,7.00
2023-05-14T00:48:26.293Z,7.30
2023-05-14T00:49:26.265Z,7.20
2023-05-14T00:50:26.519Z,8.90
2023-05-14T00:51:26.269Z,9.60
2023-05-14T00:52:26.276Z,6.60
2023-05-14T00:53:26.221Z,7.30
2023-05-14T00:54:26.228Z,7.50
2023-05-14T00:55:26.227Z,7.50
2023-05-14T00:56:26.183Z,9.70
2023-05-14T00:57:26.191Z,7.50
2023-05-14T00:58:26.175Z,6.90
2023-05-14T00:59:26.186Z,7.60
2023-05-14T01:00:26.247Z,7.40
2023-05-14T01:01:26.178Z,8.00
2023-05-14T01:02:26.197Z,8.20
2023-05-14T01:03:26.370Z,13.30
2023-05-14T01:04:26.140Z,6.10
2023-05-14T01:05:26.129Z,9.50
2023-05-14T01:06:26.086Z,9.60
2023-05-14T01:07:26.082Z,8.00
2023-05-14T01:08:26.068Z,8.00
2023-05-14T01:09:26.104Z,6.50
2023-05-14T01:10:26.356Z,7.50
2023-05-14T01:11:26.048Z,9.70
2023-05-14T01:12:26.041Z,9.20
2023-05-14T01:13:26.019Z,11.50
2023-05-14T01:14:26.018Z,7.60
2023-05-14T01:15:25.995Z,8.00
2023-05-14T01:16:26.019Z,7.20
2023-05-14T01:17:25.978Z,7.30
2023-05-14T01:18:26.025Z,9.40
2023-05-14T01:19:25.977Z,9.10
2023-05-14T01:20:26.171Z,8.20
2023-05-14T01:21:25.946Z,9.60
2023-05-14T01:22:25.920Z,8.90
2023-05-14T01:23:25.936Z,9.10
2023-05-14T01:24:25.899Z,9.10
2023-05-14T01:25:25.894Z,6.70
2023-05-14T01:26:25.883Z,11.10
2023-05-14T01:27:25.868Z,6.90
2023-05-14T01:28:25.895Z,10.00
2023-05-14T01:29:25.850Z,8.60
2023-05-14T01:30:26.058Z,8.00
2023-05-14T01:31:25.855Z,6.50
2023-05-14T01:32:25.851Z,8.80
2023-05-14T01:33:25.834Z,9.70
2023-05-14T01:34:25.808Z,7.80
2023-05-14T01:35:25.796Z,8.20
2023-05-14T01:36:25.771Z,9.50
2023-05-14T01:37:25.792Z,10.20
2023-05-14T01:38:25.771Z,8.10
2023-05-14T01:39:25.754Z,9.70
2023-05-14T01:40:26.060Z,8.80
2023-05-14T01:41:25.727Z,8.90
2023-05-14T01:42:25.731Z,9.30
2023-05-14T01:43:25.727Z,8.60
2023-05-14T01:44:25.691Z,8.30
2023-05-14T01:45:25.694Z,7.50
2023-05-14T01:46:25.739Z,14.80
2023-05-14T01:47:25.687Z,11.20
2023-05-14T01:48:25.655Z,9.30
2023-05-14T01:49:25.651Z,7.90
2023-05-14T01:50:25.766Z,9.60
2023-05-14T01:51:25.649Z,8.50
2023-05-14T01:52:25.604Z,10.10
2023-05-14T01:53:25.595Z,9.50
2023-05-14T01:54:25.587Z,6.80
2023-05-14T01:55:25.578Z,8.80
2023-05-14T01:56:25.587Z,8.00
2023-05-14T01:57:25.557Z,9.10
2023-05-14T01:58:25.546Z,7.90
2023-05-14T01:59:25.544Z,10.50
2023-05-14T02:00:25.871Z,9.80
2023-05-14T02:01:25.602Z,8.10
2023-05-14T02:02:25.719Z,10.30
2023-05-14T02:03:25.495Z,8.40
2023-05-14T02:04:25.524Z,9.70
2023-05-14T02:05:25.493Z,7.50
2023-05-14T02:06:25.457Z,7.90
2023-05-14T02:07:25.458Z,7.10
2023-05-14T02:08:25.453Z,7.70
2023-05-14T02:09:25.446Z,9.40
2023-05-14T02:10:25.645Z,7.70
2023-05-14T02:11:25.423Z,9.00
2023-05-14T02:12:25.400Z,7.40
2023-05-14T02:13:25.384Z,7.40
2023-05-14T02:14:25.409Z,7.80
2023-05-14T02:15:25.398Z,7.80
2023-05-14T02:16:25.442Z,13.60
2023-05-14T02:17:25.367Z,8.10
2023-05-14T02:18:25.368Z,8.90
2023-05-14T02:19:25.365Z,8.90
2023-05-14T02:20:25.549Z,7.50
2023-05-14T02:21:25.341Z,7.90
2023-05-14T02:22:25.300Z,6.50
2023-05-14T02:23:34.048Z,9.10
2023-05-14T02:24:25.314Z,7.90
2023-05-14T02:25:25.271Z,6.50
2023-05-14T02:26:25.270Z,9.70
2023-05-14T02:27:25.239Z,9.60
2023-05-14T02:28:25.271Z,7.70
2023-05-14T02:29:25.262Z,6.30
2023-05-14T02:30:25.497Z,9.90
2023-05-14T02:31:25.235Z,7.50
2023-05-14T02:32:25.416Z,8.30
2023-05-14T02:33:25.233Z,8.30
2023-05-14T02:34:25.181Z,8.90
2023-05-14T02:35:25.174Z,7.20
2023-05-14T02:36:25.163Z,8.30
2023-05-14T02:37:25.150Z,11.40
2023-05-14T02:38:25.165Z,6.70
2023-05-14T02:39:25.123Z,8.70
2023-05-14T02:40:25.335Z,7.20
2023-05-14T02:41:25.106Z,10.90
2023-05-14T02:42:25.141Z,8.90
2023-05-14T02:43:25.112Z,7.40
2023-05-14T02:44:25.087Z,8.50
2023-05-14T02:45:25.060Z,6.60
2023-05-14T02:46:25.086Z,6.90
2023-05-14T02:47:25.078Z,10.00
2023-05-14T02:48:25.049Z,7.20
2023-05-14T02:49:25.024Z,7.50
2023-05-14T02:50:25.360Z,7.70
2023-05-14T02:51:24.999Z,8.90
2023-05-14T02:52:25.018Z,7.60
2023-05-14T02:53:24.986Z,7.20
2023-05-14T02:54:24.980Z,8.60
2023-05-14T02:55:24.964Z,9.40
2023-05-14T02:56:24.992Z,11.60
2023-05-14T02:57:25.005Z,8.00
2023-05-14T02:58:28.292Z,16.80
2023-05-14T02:59:24.937Z,10.90
2023-05-14T03:00:25.162Z,10.70
2023-05-14T03:01:24.977Z,8.40
2023-05-14T03:02:24.959Z,8.90
2023-05-14T03:03:24.927Z,8.70
2023-05-14T03:04:24.879Z,9.40
2023-05-14T03:05:24.864Z,9.00
2023-05-14T03:06:24.872Z,7.20
2023-05-14T03:07:24.857Z,6.50
2023-05-14T03:08:24.842Z,6.10
2023-05-14T03:09:24.827Z,8.30
2023-05-14T03:10:25.210Z,7.40
2023-05-14T03:11:24.831Z,10.10
2023-05-14T03:12:24.814Z,7.70
2023-05-14T03:13:24.815Z,7.80
2023-05-14T03:14:24.805Z,9.30
2023-05-14T03:15:24.812Z,8.10
2023-05-14T03:16:24.798Z,8.80
2023-05-14T03:17:24.777Z,9.90
2023-05-14T03:18:24.761Z,8.00
2023-05-14T03:19:24.716Z,7.20
2023-05-14T03:20:24.940Z,8.00
2023-05-14T03:21:24.718Z,7.80
2023-05-14T03:22:24.690Z,10.10
2023-05-14T03:23:24.677Z,8.60
2023-05-14T03:24:24.697Z,6.80
2023-05-14T03:25:24.703Z,7.30
2023-05-14T03:26:24.677Z,7.90
2023-05-14T03:27:24.635Z,10.50
2023-05-14T03:28:24.667Z,7.90
2023-05-14T03:29:24.648Z,8.20
2023-05-14T03:30:24.889Z,7.30
2023-05-14T03:31:24.729Z,7.40
2023-05-14T03:32:24.624Z,7.40
2023-05-14T03:33:24.582Z,6.80
2023-05-14T03:34:24.588Z,7.10
2023-05-14T03:35:24.561Z,8.80
2023-05-14T03:36:24.555Z,7.00
2023-05-14T03:37:24.557Z,6.90
2023-05-14T03:38:24.529Z,8.70
2023-05-14T03:39:24.539Z,8.50
2023-05-14T03:40:24.768Z,9.80
2023-05-14T03:41:24.494Z,8.80
2023-05-14T03:42:24.495Z,9.90
2023-05-14T03:43:24.497Z,8.40
2023-05-14T03:44:24.489Z,7.10
2023-05-14T03:45:24.461Z,8.60
2023-05-14T03:46:24.440Z,7.50
2023-05-14T03:47:24.453Z,9.00
2023-05-14T03:48:24.528Z,10.00
2023-05-14T03:49:24.426Z,7.50
2023-05-14T03:50:24.519Z,6.80
2023-05-14T03:51:24.403Z,8.30
2023-05-14T03:52:24.398Z,6.00
2023-05-14T03:53:24.400Z,7.80
2023-05-14T03:54:24.359Z,8.40
2023-05-14T03:55:24.367Z,8.50
2023-05-14T03:56:24.341Z,8.20
2023-05-14T03:57:24.339Z,8.70
2023-05-14T03:58:24.348Z,8.50
2023-05-14T03:59:24.300Z,14.40
2023-05-14T04:00:24.698Z,9.80
2023-05-14T04:01:24.280Z,9.10
2023-05-14T04:02:24.370Z,6.60
2023-05-14T04:03:24.552Z,9.00
2023-05-14T04:04:24.289Z,7.70
2023-05-14T04:05:24.244Z,9.80
2023-05-14T04:06:24.234Z,6.90
2023-05-14T04:07:24.252Z,8.30
2023-05-14T04:08:24.210Z,9.60
2023-05-14T04:09:24.211Z,10.00
2023-05-14T04:10:24.430Z,12.10
2023-05-14T04:11:24.207Z,8.20
2023-05-14T04:12:24.187Z,9.40
2023-05-14T04:13:24.174Z,8.30
2023-05-14T04:14:24.178Z,7.40
2023-05-14T04:15:24.141Z,7.90
2023-05-14T04:16:24.172Z,12.00
2023-05-14T04:17:24.195Z,7.10
2023-05-14T04:18:24.170Z,8.90
2023-05-14T04:19:24.267Z,8.70
2023-05-14T04:20:24.226Z,7.70
2023-05-14T04:21:24.110Z,9.00
2023-05-14T04:22:24.069Z,7.70
2023-05-14T04:23:24.066Z,6.50
2023-05-14T04:24:24.059Z,9.10
2023-05-14T04:25:24.070Z,9.20
2023-05-14T04:26:24.048Z,7.30
2023-05-14T04:27:24.038Z,7.70
2023-05-14T04:28:24.012Z,7.70
2023-05-14T04:29:24.004Z,6.50
2023-05-14T04:30:24.224Z,7.90
2023-05-14T04:31:24.502Z,9.20
2023-05-14T04:32:24.002Z,8.80
2023-05-14T04:33:23.958Z,7.60
2023-05-14T04:34:23.971Z,7.40
2023-05-14T04:35:25.208Z,8.50
2023-05-14T04:36:23.921Z,10.10
2023-05-14T04:37:23.918Z,6.80
2023-05-14T04:38:24.001Z,9.90
2023-05-14T04:39:23.893Z,8.70
2023-05-14T04:40:24.246Z,7.50
2023-05-14T04:41:23.869Z,8.30
2023-05-14T04:42:23.860Z,7.20
2023-05-14T04:43:23.852Z,10.40
2023-05-14T04:44:23.862Z,6.70
2023-05-14T04:45:23.852Z,9.20
2023-05-14T04:46:23.882Z,10.60
2023-05-14T04:47:23.849Z,8.10
2023-05-14T04:48:23.794Z,9.90
2023-05-14T04:49:23.871Z,8.80
2023-05-14T04:50:23.975Z,7.90
2023-05-14T04:51:23.761Z,10.10
2023-05-14T04:52:23.758Z,8.50
2023-05-14T04:53:23.745Z,9.00
2023-05-14T04:54:23.775Z,9.70
2023-05-14T04:55:23.722Z,7.30
2023-05-14T04:56:23.708Z,7.70
2023-05-14T04:57:23.709Z,11.40
2023-05-14T04:58:23.710Z,9.10
2023-05-14T04:59:23.698Z,8.60
2023-05-14T05:00:23.806Z,8.40
2023-05-14T05:01:23.795Z,8.50
2023-05-14T05:02:23.670Z,11.50
2023-05-14T05:03:23.713Z,9.20
2023-05-14T05:04:23.630Z,8.00
2023-05-14T05:05:23.618Z,8.00
2023-05-14T05:06:23.612Z,11.50
2023-05-14T05:07:23.603Z,9.00
2023-05-14T05:08:23.629Z,8.40
2023-05-14T05:09:23.588Z,8.50
2023-05-14T05:10:23.821Z,8.60
2023-05-14T05:11:23.556Z,12.60
2023-05-14T05:12:23.570Z,9.40
2023-05-14T05:13:23.577Z,10.00
2023-05-14T05:14:23.522Z,9.10
2023-05-14T05:15:25.259Z,8.20
2023-05-14T05:16:23.572Z,7.40
2023-05-14T05:17:23.558Z,11.20
2023-05-14T05:18:23.494Z,8.40
2023-05-14T05:19:35.913Z,9.10
2023-05-14T05:20:23.714Z,9.50
2023-05-14T05:21:23.482Z,13.20
2023-05-14T05:22:23.464Z,8.50
2023-05-14T05:23:23.435Z,8.00
2023-05-14T05:24:23.428Z,8.70
2023-05-14T05:25:23.427Z,11.50
2023-05-14T05:26:23.403Z,9.00
2023-05-14T05:27:23.421Z,10.20
2023-05-14T05:28:23.383Z,7.80
2023-05-14T05:29:23.378Z,8.10
2023-05-14T05:30:23.624Z,8.00
2023-05-14T05:31:23.432Z,8.80
2023-05-14T05:32:23.527Z,12.50
2023-05-14T05:33:23.362Z,8.30
2023-05-14T05:34:23.334Z,11.70
2023-05-14T05:35:23.315Z,9.20
2023-05-14T05:36:23.333Z,9.10
2023-05-14T05:37:23.305Z,8.40
2023-05-14T05:38:23.275Z,8.00
2023-05-14T05:39:23.285Z,12.20
2023-05-14T05:40:23.491Z,9.20
2023-05-14T05:41:23.286Z,9.50
2023-05-14T05:42:23.236Z,9.50
2023-05-14T05:43:23.226Z,11.50
2023-05-14T05:44:23.209Z,12.00
2023-05-14T05:45:23.254Z,8.90
2023-05-14T05:46:23.279Z,8.50
2023-05-14T05:47:23.203Z,8.40
2023-05-14T05:48:23.197Z,14.20
2023-05-14T05:49:23.162Z,11.70
2023-05-14T05:50:23.401Z,8.40
2023-05-14T05:51:23.167Z,10.00
2023-05-14T05:52:23.128Z,9.30
2023-05-14T05:53:23.125Z,8.20
2023-05-14T05:54:23.120Z,7.50
2023-05-14T05:55:23.128Z,9.40
2023-05-14T05:56:23.084Z,8.90
2023-05-14T05:57:25.053Z,7.80
2023-05-14T05:58:23.072Z,7.80
2023-05-14T05:59:23.096Z,9.00
2023-05-14T06:00:23.253Z,11.20
2023-05-14T06:01:23.049Z,8.40
2023-05-14T06:02:23.099Z,7.40
2023-05-14T06:03:23.065Z,14.00
2023-05-14T06:04:23.035Z,8.50
2023-05-14T06:05:23.038Z,8.90
2023-05-14T06:06:22.994Z,8.10
2023-05-14T06:07:23.016Z,7.70
2023-05-14T06:08:23.005Z,10.30
2023-05-14T06:09:22.989Z,8.80
2023-05-14T06:10:23.113Z,7.90
2023-05-14T06:11:22.968Z,7.50
2023-05-14T06:12:22.924Z,9.10
2023-05-14T06:13:22.957Z,8.40
2023-05-14T06:14:22.907Z,7.70
2023-05-14T06:15:22.908Z,10.10
2023-05-14T06:16:22.914Z,9.70
2023-05-14T06:17:22.928Z,8.40
2023-05-14T06:18:22.888Z,8.80
2023-05-14T06:19:23.033Z,8.40
2023-05-14T06:20:23.035Z,9.90
2023-05-14T06:21:22.839Z,9.70
2023-05-14T06:22:22.845Z,7.60
2023-05-14T06:23:22.867Z,7.30
2023-05-14T06:24:22.798Z,9.30
2023-05-14T06:25:22.800Z,10.70
2023-05-14T06:26:22.847Z,7.20
2023-05-14T06:27:22.795Z,12.50
2023-05-14T06:28:22.755Z,9.00
2023-05-14T06:29:22.816Z,8.60
2023-05-14T06:30:23.175Z,10.10
2023-05-14T06:31:22.769Z,7.30
2023-05-14T06:32:22.897Z,9.60
2023-05-14T06:33:22.710Z,7.80
2023-05-14T06:34:22.714Z,7.10
2023-05-14T06:35:22.706Z,7.10
2023-05-14T06:36:22.670Z,7.40
2023-05-14T06:37:22.714Z,8.40
2023-05-14T06:38:22.653Z,8.80
2023-05-14T06:39:22.652Z,9.60
2023-05-14T06:40:23.069Z,8.80
2023-05-14T06:41:22.673Z,9.20
2023-05-14T06:42:22.636Z,8.90
2023-05-14T06:43:22.633Z,7.70
2023-05-14T06:44:22.617Z,7.50
2023-05-14T06:45:22.579Z,10.90
2023-05-14T06:46:22.655Z,9.20
2023-05-14T06:47:22.578Z,7.50
2023-05-14T06:48:22.631Z,10.10
2023-05-14T06:49:22.538Z,10.10
2023-05-14T06:50:22.715Z,8.10
2023-05-14T06:51:22.565Z,10.20
2023-05-14T06:52:22.539Z,7.80
2023-05-14T06:53:22.501Z,7.50
2023-05-14T06:54:22.507Z,7.30
2023-05-14T06:55:22.475Z,7.50
2023-05-14T06:56:22.486Z,11.20
2023-05-14T06:57:22.472Z,7.40
2023-05-14T06:58:22.451Z,12.80
2023-05-14T06:59:22.439Z,8.10
2023-05-14T07:00:22.754Z,8.60
2023-05-14T07:01:22.465Z,7.70
2023-05-14T07:02:22.445Z,7.40
2023-05-14T07:03:22.418Z,7.10
2023-05-14T07:04:22.426Z,6.90
2023-05-14T07:05:22.402Z,12.20
2023-05-14T07:06:22.350Z,5.40
2023-05-14T07:07:22.360Z,9.60
2023-05-14T07:08:22.339Z,6.10
2023-05-14T07:09:22.333Z,4.60
2023-05-14T07:10:22.789Z,5.50
2023-05-14T07:11:22.400Z,5.90
2023-05-14T07:12:22.306Z,5.90
2023-05-14T07:13:22.295Z,6.00
2023-05-14T07:14:22.297Z,5.70
2023-05-14T07:15:22.294Z,5.80
2023-05-14T07:16:22.260Z,5.40
2023-05-14T07:17:22.406Z,4.40
2023-05-14T07:18:22.291Z,5.40
2023-05-14T07:19:22.261Z,4.80
2023-05-14T07:20:22.502Z,6.40
2023-05-14T07:21:22.243Z,6.20
2023-05-14T07:22:22.266Z,5.40
2023-05-14T07:23:22.256Z,4.90
2023-05-14T07:24:22.221Z,6.00
2023-05-14T07:25:22.176Z,5.30
2023-05-14T07:26:22.272Z,5.60
2023-05-14T07:27:22.170Z,5.70
2023-05-14T07:28:22.183Z,6.90
2023-05-14T07:29:22.164Z,6.60
2023-05-14T07:30:22.244Z,5.30
2023-05-14T07:31:22.184Z,5.10
2023-05-14T07:32:22.089Z,5.50
2023-05-14T07:33:22.124Z,5.50
2023-05-14T07:34:22.103Z,5.50
2023-05-14T07:35:22.093Z,5.00
2023-05-14T07:36:22.054Z,6.30
2023-05-14T07:37:23.728Z,7.20
2023-05-14T07:38:22.051Z,5.60
2023-05-14T07:39:22.040Z,7.80
2023-05-14T07:40:22.165Z,5.50
2023-05-14T07:41:22.008Z,6.70
2023-05-14T07:42:34.579Z,6.30
2023-05-14T07:43:22.012Z,5.90
2023-05-14T07:44:21.980Z,5.20
2023-05-14T07:45:21.967Z,6.90
2023-05-14T07:46:21.966Z,7.40
2023-05-14T07:47:21.985Z,5.40
2023-05-14T07:48:21.965Z,5.80
2023-05-14T07:49:21.946Z,4.90
2023-05-14T07:50:22.212Z,5.10
2023-05-14T07:51:21.932Z,6.30
2023-05-14T07:52:21.918Z,4.40
2023-05-14T07:53:21.895Z,5.70
2023-05-14T07:54:21.879Z,5.80
2023-05-14T07:55:21.870Z,5.80
2023-05-14T07:56:21.852Z,8.10
2023-05-14T07:57:21.863Z,5.60
2023-05-14T07:58:21.831Z,6.30
2023-05-14T07:59:21.831Z,4.80
2023-05-14T08:00:22.004Z,7.90
2023-05-14T08:01:21.828Z,5.60
2023-05-14T08:02:21.934Z,7.10
2023-05-14T08:03:21.863Z,5.70
2023-05-14T08:04:21.807Z,5.30
2023-05-14T08:05:21.764Z,5.30
2023-05-14T08:06:21.786Z,7.90
2023-05-14T08:07:21.753Z,5.80
2023-05-14T08:08:21.900Z,5.20
2023-05-14T08:09:21.726Z,4.90
2023-05-14T08:10:21.837Z,4.80
2023-05-14T08:11:21.756Z,6.90
2023-05-14T08:12:21.713Z,4.70
2023-05-14T08:13:21.678Z,5.60
2023-05-14T08:14:21.696Z,5.50
2023-05-14T08:15:21.694Z,5.40
2023-05-14T08:16:21.692Z,7.50
2023-05-14T08:17:21.686Z,5.30
2023-05-14T08:18:21.638Z,5.50
2023-05-14T08:19:21.682Z,6.40
2023-05-14T08:20:21.691Z,5.10
2023-05-14T08:21:21.621Z,4.80
2023-05-14T08:22:21.802Z,4.90
2023-05-14T08:23:21.590Z,5.40
2023-05-14T08:24:21.565Z,5.50
2023-05-14T08:25:21.583Z,5.60
2023-05-14T08:26:21.552Z,6.40
2023-05-14T08:27:21.552Z,4.40
2023-05-14T08:28:21.539Z,5.70
2023-05-14T08:29:21.563Z,4.50
2023-05-14T08:30:21.693Z,5.70
2023-05-14T08:31:21.526Z,5.50
2023-05-14T08:32:23.868Z,4.30
2023-05-14T08:33:21.483Z,4.90
2023-05-14T08:34:21.549Z,5.50
2023-05-14T08:35:21.468Z,4.90
2023-05-14T08:36:21.465Z,5.70
2023-05-14T08:37:21.454Z,6.00
2023-05-14T08:38:21.435Z,4.60
2023-05-14T08:39:21.447Z,6.40
2023-05-14T08:40:21.577Z,4.20
2023-05-14T08:41:21.402Z,5.20
2023-05-14T08:42:21.396Z,5.00
2023-05-14T08:43:21.420Z,8.20
2023-05-14T08:44:21.393Z,4.30
2023-05-14T08:45:21.352Z,4.40
2023-05-14T08:46:21.349Z,4.80
2023-05-14T08:47:21.331Z,4.70
2023-05-14T08:48:21.434Z,5.10
2023-05-14T08:49:21.301Z,5.60
2023-05-14T08:50:23.024Z,4.40
2023-05-14T08:51:21.284Z,4.80
2023-05-14T08:52:21.285Z,4.40
2023-05-14T08:53:21.318Z,4.40
2023-05-14T08:54:21.301Z,3.70
2023-05-14T08:55:21.306Z,4.40
2023-05-14T08:56:21.233Z,4.10
2023-05-14T08:57:21.255Z,4.70
2023-05-14T08:58:21.237Z,4.70
2023-05-14T08:59:21.256Z,5.10
2023-05-14T09:00:21.272Z,3.90
2023-05-14T09:01:21.218Z,3.50
2023-05-14T09:02:21.234Z,3.50
2023-05-14T09:03:21.205Z,3.40
2023-05-14T09:04:21.221Z,6.10
2023-05-14T09:05:21.150Z,4.60
2023-05-14T09:06:21.164Z,5.10
2023-05-14T09:07:21.141Z,3.70
2023-05-14T09:08:21.144Z,3.90
2023-05-14T09:09:21.110Z,5.00
2023-05-14T09:10:21.281Z,4.00
2023-05-14T09:11:21.124Z,5.50
2023-05-14T09:12:21.110Z,3.70
2023-05-14T09:13:21.066Z,5.20
2023-05-14T09:14:21.061Z,5.20
2023-05-14T09:15:21.049Z,4.70
2023-05-14T09:16:21.084Z,5.00
2023-05-14T09:17:21.108Z,5.90
2023-05-14T09:18:21.042Z,4.70
2023-05-14T09:19:21.041Z,5.90
2023-05-14T09:20:21.094Z,7.00
2023-05-14T09:21:21.022Z,4.90
2023-05-14T09:22:20.979Z,6.20
2023-05-14T09:23:20.957Z,4.10
2023-05-14T09:24:20.984Z,4.90
2023-05-14T09:25:20.963Z,6.00
2023-05-14T09:26:20.984Z,4.90
2023-05-14T09:27:20.929Z,4.00
2023-05-14T09:28:20.920Z,5.40
2023-05-14T09:29:20.913Z,4.40
2023-05-14T09:30:20.934Z,4.90
2023-05-14T09:31:20.968Z,6.10
2023-05-14T09:32:20.876Z,4.90
2023-05-14T09:33:20.875Z,4.30
2023-05-14T09:34:20.864Z,6.00
2023-05-14T09:35:20.879Z,4.60
2023-05-14T09:36:20.833Z,4.80
2023-05-14T09:37:20.838Z,13.50
2023-05-14T09:38:20.825Z,5.80
2023-05-14T09:39:20.808Z,6.00
2023-05-14T09:40:20.955Z,4.90
2023-05-14T09:41:20.790Z,5.70
2023-05-14T09:42:20.776Z,4.30
2023-05-14T09:43:20.760Z,5.60
2023-05-14T09:44:20.800Z,3.90
2023-05-14T09:45:20.764Z,3.10
2023-05-14T09:46:20.737Z,4.10
2023-05-14T09:47:20.805Z,3.30
2023-05-14T09:48:20.749Z,4.20
2023-05-14T09:49:20.723Z,4.00
2023-05-14T09:50:20.762Z,5.10
2023-05-14T09:51:20.681Z,4.00
2023-05-14T09:52:20.703Z,3.30
2023-05-14T09:53:20.673Z,4.30
2023-05-14T09:54:20.682Z,3.90
2023-05-14T09:55:20.645Z,4.60
2023-05-14T09:56:20.640Z,3.40
2023-05-14T09:57:20.624Z,4.60
2023-05-14T09:58:20.631Z,4.20
2023-05-14T09:59:20.635Z,5.10
2023-05-14T10:00:20.719Z,3.70
2023-05-14T10:01:20.719Z,4.20
2023-05-14T10:02:20.589Z,5.40
2023-05-14T10:03:20.597Z,3.20
2023-05-14T10:04:20.630Z,3.40
2023-05-14T10:05:20.571Z,4.60
2023-05-14T10:06:20.559Z,3.50
2023-05-14T10:07:20.526Z,4.40
2023-05-14T10:08:20.620Z,3.40
2023-05-14T10:09:20.505Z,4.70
2023-05-14T10:10:20.563Z,3.30
2023-05-14T10:11:20.512Z,3.90
2023-05-14T10:12:20.486Z,4.10
2023-05-14T10:13:20.493Z,3.90
2023-05-14T10:14:20.458Z,4.40
2023-05-14T10:15:20.445Z,3.80
2023-05-14T10:16:20.510Z,4.30
2023-05-14T10:17:20.527Z,4.60
2023-05-14T10:18:20.452Z,4.50
2023-05-14T10:19:20.625Z,6.90
2023-05-14T10:20:20.442Z,4.40
2023-05-14T10:21:20.384Z,5.40
2023-05-14T10:22:20.399Z,4.40
2023-05-14T10:23:20.410Z,4.10
2023-05-14T10:24:20.369Z,3.20
2023-05-14T10:25:20.346Z,4.30
2023-05-14T10:26:22.390Z,4.10
2023-05-14T10:27:20.348Z,4.50
2023-05-14T10:28:20.341Z,4.00
2023-05-14T10:29:20.314Z,4.00
2023-05-14T10:30:20.307Z,3.50
2023-05-14T10:31:20.343Z,8.20
2023-05-14T10:32:20.301Z,5.20
2023-05-14T10:33:20.277Z,6.30
2023-05-14T10:34:20.269Z,5.20
2023-05-14T10:35:20.281Z,4.50
2023-05-14T10:36:20.266Z,5.90
2023-05-14T10:37:20.231Z,6.10
2023-05-14T10:38:20.226Z,4.40
2023-05-14T10:39:20.230Z,5.20
2023-05-14T10:40:20.253Z,5.40
2023-05-14T10:41:20.204Z,4.70
2023-05-14T10:42:20.199Z,4.40
2023-05-14T10:43:20.168Z,5.10
2023-05-14T10:44:20.161Z,3.50
2023-05-14T10:45:20.172Z,5.10
2023-05-14T10:46:20.340Z,4.40
2023-05-14T10:47:20.132Z,5.10
2023-05-14T10:48:20.169Z,3.10
2023-05-14T10:49:28.241Z,5.20
2023-05-14T10:50:20.157Z,3.50
2023-05-14T10:51:20.140Z,6.20
2023-05-14T10:52:20.086Z,3.30
2023-05-14T10:53:20.076Z,4.00
2023-05-14T10:54:20.059Z,4.90
2023-05-14T10:55:20.082Z,4.00
2023-05-14T10:56:20.048Z,3.70
2023-05-14T10:57:20.049Z,4.30
2023-05-14T10:58:20.050Z,4.30
2023-05-14T10:59:20.054Z,6.30
2023-05-14T11:00:20.037Z,4.20
2023-05-14T11:01:20.042Z,4.10
2023-05-14T11:02:20.121Z,4.20
2023-05-14T11:03:20.028Z,4.70
2023-05-14T11:04:20.015Z,3.50
2023-05-14T11:05:19.963Z,3.80
2023-05-14T11:06:19.955Z,4.40
2023-05-14T11:07:20.017Z,3.20
2023-05-14T11:08:19.963Z,4.50
2023-05-14T11:09:19.919Z,3.10
2023-05-14T11:10:19.899Z,3.40
2023-05-14T11:11:19.883Z,4.10
2023-05-14T11:12:19.895Z,4.80
2023-05-14T11:13:19.854Z,5.40
2023-05-14T11:14:19.875Z,4.50
2023-05-14T11:15:19.857Z,3.60
2023-05-14T11:16:23.375Z,3.90
2023-05-14T11:17:19.862Z,3.90
2023-05-14T11:18:19.808Z,4.10
2023-05-14T11:19:19.839Z,4.80
2023-05-14T11:20:19.788Z,4.10
2023-05-14T11:21:19.792Z,4.60
2023-05-14T11:22:19.774Z,5.50
2023-05-14T11:23:19.785Z,3.80
2023-05-14T11:24:19.777Z,5.60
2023-05-14T11:25:19.735Z,3.80
2023-05-14T11:26:21.617Z,4.50
2023-05-14T11:27:19.706Z,4.30
2023-05-14T11:28:19.725Z,5.70
2023-05-14T11:29:19.696Z,3.60
2023-05-14T11:30:19.722Z,3.40
2023-05-14T11:31:19.729Z,4.30
2023-05-14T11:32:19.666Z,4.30
2023-05-14T11:33:19.757Z,4.80
2023-05-14T11:34:19.654Z,3.80
2023-05-14T11:35:19.623Z,3.20
2023-05-14T11:36:19.625Z,5.10
2023-05-14T11:37:19.606Z,6.10
2023-05-14T11:38:19.625Z,3.90
2023-05-14T11:39:19.615Z,5.10
2023-05-14T11:40:19.572Z,3.40
2023-05-14T11:41:19.580Z,3.20
2023-05-14T11:42:19.656Z,5.40
2023-05-14T11:43:19.570Z,5.60
2023-05-14T11:44:19.545Z,7.10
2023-05-14T11:45:19.530Z,5.30
2023-05-14T11:46:19.764Z,4.20
2023-05-14T11:47:19.524Z,4.90
2023-05-14T11:48:19.501Z,5.90
2023-05-14T11:49:19.471Z,6.20
2023-05-14T11:50:19.481Z,4.40
2023-05-14T11:51:19.461Z,4.00
2023-05-14T11:52:19.714Z,3.90
2023-05-14T11:53:19.454Z,3.80
2023-05-14T11:54:19.429Z,5.30
2023-05-14T11:55:19.412Z,5.50
2023-05-14T11:56:19.424Z,4.50
2023-05-14T11:57:19.415Z,4.80
2023-05-14T11:58:19.384Z,4.30
2023-05-14T11:59:19.362Z,3.30
2023-05-14T12:00:19.355Z,5.20
2023-05-14T12:01:19.392Z,3.60
2023-05-14T12:02:19.369Z,5.80
2023-05-14T12:03:19.494Z,3.70
2023-05-14T12:04:19.364Z,5.40
2023-05-14T12:05:19.302Z,4.70
2023-05-14T12:06:19.316Z,4.00
2023-05-14T12:07:19.297Z,3.90
2023-05-14T12:08:19.273Z,4.80
2023-05-14T12:09:19.255Z,4.10
2023-05-14T12:10:19.294Z,4.30
2023-05-14T12:11:19.260Z,6.20
2023-05-14T12:12:19.229Z,4.50
2023-05-14T12:13:19.227Z,5.10
2023-05-14T12:14:19.232Z,5.00
2023-05-14T12:15:19.235Z,4.30
2023-05-14T12:16:19.300Z,4.60
2023-05-14T12:17:19.170Z,5.10
2023-05-14T12:18:24.596Z,4.20
2023-05-14T12:19:19.299Z,4.60
2023-05-14T12:20:19.187Z,4.00
2023-05-14T12:21:19.171Z,5.10
2023-05-14T12:22:19.135Z,4.90
2023-05-14T12:23:19.111Z,4.00
2023-05-14T12:24:19.110Z,5.00
2023-05-14T12:25:19.112Z,4.70
2023-05-14T12:26:19.096Z,5.20
2023-05-14T12:27:19.075Z,4.70
2023-05-14T12:28:19.060Z,4.30
2023-05-14T12:29:19.070Z,4.30
2023-05-14T12:30:21.838Z,4.20
2023-05-14T12:31:19.051Z,11.70
2023-05-14T12:32:19.020Z,5.10
2023-05-14T12:33:19.040Z,4.70
2023-05-14T12:34:19.035Z,4.40
2023-05-14T12:35:19.043Z,3.90
2023-05-14T12:36:22.247Z,4.10
2023-05-14T12:37:18.965Z,5.00
2023-05-14T12:38:18.978Z,4.80
2023-05-14T12:39:19.019Z,6.00
2023-05-14T12:40:18.925Z,4.40
2023-05-14T12:41:18.942Z,3.60
2023-05-14T12:42:18.945Z,5.70
2023-05-14T12:43:18.924Z,5.20
2023-05-14T12:44:18.910Z,4.50
2023-05-14T12:45:18.920Z,4.30
2023-05-14T12:46:18.906Z,4.90
2023-05-14T12:47:18.883Z,5.00
2023-05-14T12:48:18.877Z,4.90
2023-05-14T12:49:18.835Z,3.80
2023-05-14T12:50:18.848Z,4.20
2023-05-14T12:51:18.848Z,3.90
2023-05-14T12:52:29.458Z,4.30
2023-05-14T12:53:18.841Z,4.90
2023-05-14T12:54:18.964Z,4.50
2023-05-14T12:55:18.768Z,3.90
2023-05-14T12:56:18.796Z,4.60
2023-05-14T12:57:18.769Z,4.50
2023-05-14T12:58:18.750Z,5.10
2023-05-14T12:59:18.728Z,5.00
2023-05-14T13:00:18.718Z,4.00
2023-05-14T13:01:18.862Z,4.10
2023-05-14T13:02:18.819Z,5.60
2023-05-14T13:03:18.760Z,3.80
2023-05-14T13:04:18.717Z,4.70
2023-05-14T13:05:18.673Z,5.80
2023-05-14T13:06:18.664Z,5.20
2023-05-14T13:07:18.664Z,3.60
2023-05-14T13:08:18.642Z,5.80
2023-05-14T13:09:18.634Z,4.80
2023-05-14T13:10:18.617Z,4.40
2023-05-14T13:11:18.634Z,4.20
2023-05-14T13:12:18.844Z,4.70
2023-05-14T13:13:18.622Z,4.90
2023-05-14T13:14:20.165Z,3.80
2023-05-14T13:15:18.562Z,5.10
2023-05-14T13:16:18.617Z,5.30